Time;durP1;ratioP1;P1;durP2;ratioP2;P2;SDS_P1;SDS_P2;PMS_P1;PMS_P2;Temp;Humidity;BMP_temperature;BMP_pressure;BME280_temperature;BME280_humidity;BME280_pressure;Samples;Min_cycle;Max_cycle;Signal;HPM_P1;HPM_P2
2023/06/03 00:02:25;;;;;;;3.13;2.83;;;23.00;51.60;;;;;;4977685;28;21019;-68
2023/06/03 00:04:54;;;;;;;2.73;2.10;;;23.00;51.60;;;;;;4969648;28;20547;-69
2023/06/03 00:07:22;;;;;;;3.00;2.20;;;23.00;51.70;;;;;;4969539;28;20437;-68
2023/06/03 00:09:51;;;;;;;2.60;2.40;;;23.00;51.60;;;;;;4983872;28;20535;-69
2023/06/03 00:12:20;;;;;;;2.67;2.43;;;23.00;51.80;;;;;;4968717;28;20708;-67
2023/06/03 00:14:49;;;;;;;2.10;1.90;;;23.00;51.70;;;;;;4985338;28;21030;-69
2023/06/03 00:17:21;;;;;;;2.10;1.90;;;22.90;51.70;;;;;;4967350;28;21066;-69
2023/06/03 00:19:50;;;;;;;2.70;2.23;;;22.90;51.70;;;;;;4970087;28;20431;-68
2023/06/03 00:22:18;;;;;;;2.50;2.30;;;22.90;51.80;;;;;;4968829;28;20567;-68
2023/06/03 00:24:46;;;;;;;2.67;2.47;;;23.00;51.90;;;;;;4967567;28;21051;-68
2023/06/03 00:27:15;;;;;;;2.50;2.13;;;23.00;52.00;;;;;;4984094;28;20673;-69
2023/06/03 00:29:44;;;;;;;2.87;2.10;;;23.00;54.30;;;;;;4968948;28;20451;-69
2023/06/03 00:32:14;;;;;;;3.60;2.20;;;22.90;51.80;;;;;;4961855;28;21034;-69
2023/06/03 00:34:42;;;;;;;2.30;2.17;;;22.90;51.80;;;;;;4969034;28;20453;-68
2023/06/03 00:37:11;;;;;;;2.33;2.00;;;22.90;51.80;;;;;;4967004;28;20466;-69
2023/06/03 00:39:39;;;;;;;2.30;2.10;;;22.90;51.90;;;;;;4967887;28;21144;-69
2023/06/03 00:42:08;;;;;;;2.40;2.20;;;22.90;51.80;;;;;;4966823;28;20978;-67
2023/06/03 00:44:36;;;;;;;2.13;1.93;;;22.90;51.90;;;;;;4966436;28;20476;-69
2023/06/03 00:47:06;;;;;;;2.50;2.03;;;22.90;52.00;;;;;;4965942;28;20492;-67
2023/06/03 00:49:36;;;;;;;2.50;2.30;;;22.90;51.90;;;;;;4969146;28;20447;-68
2023/06/03 00:52:05;;;;;;;2.97;2.17;;;22.90;52.10;;;;;;4969679;28;20846;-67
2023/06/03 00:54:34;;;;;;;2.90;2.17;;;22.90;52.00;;;;;;4965730;28;21093;-69
2023/06/03 00:57:04;;;;;;;2.27;2.07;;;22.90;52.10;;;;;;4969431;28;20478;-68
2023/06/03 00:59:32;;;;;;;2.77;2.53;;;22.90;52.00;;;;;;4967827;28;21046;-68
2023/06/03 01:02:01;;;;;;;2.40;2.20;;;22.90;52.00;;;;;;4983287;28;20449;-69
2023/06/03 01:04:29;;;;;;;3.00;1.90;;;22.90;52.10;;;;;;4966876;28;20511;-67
2023/06/03 01:07:07;;;;;;;1.90;1.80;;;22.90;52.10;;;;;;4969458;28;21028;-68
2023/06/03 01:09:47;;;;;;;3.63;2.07;;;22.90;52.00;;;;;;4964950;28;20979;-68
2023/06/03 01:12:22;;;;;;;2.63;2.23;;;22.80;52.00;;;;;;4967524;28;20497;-68
2023/06/03 01:14:55;;;;;;;2.43;2.23;;;22.90;52.10;;;;;;4968672;28;20499;-68
2023/06/03 01:17:27;;;;;;;2.90;2.63;;;22.80;51.90;;;;;;4961998;28;20469;-69
2023/06/03 01:19:58;;;;;;;2.20;2.10;;;22.90;52.10;;;;;;4969253;28;20444;-69
2023/06/03 01:22:29;;;;;;;2.47;2.17;;;22.80;52.00;;;;;;4968723;28;20814;-68
2023/06/03 01:25:06;;;;;;;2.43;2.23;;;22.80;51.90;;;;;;4969731;28;20453;-69
2023/06/03 01:27:36;;;;;;;2.67;2.27;;;22.90;52.10;;;;;;4960604;28;20457;-69
2023/06/03 01:30:07;;;;;;;2.23;2.07;;;22.80;52.00;;;;;;4965737;28;20933;-68
2023/06/03 01:32:37;;;;;;;2.83;2.47;;;22.80;51.90;;;;;;4961702;28;20993;-69
2023/06/03 01:35:07;;;;;;;1.80;1.70;;;22.80;51.90;;;;;;4967979;28;20477;-68
2023/06/03 01:37:36;;;;;;;2.37;1.93;;;22.80;52.00;;;;;;4968615;28;21015;-68
2023/06/03 01:40:09;;;;;;;2.23;2.03;;;22.80;51.90;;;;;;4964446;28;20456;-69
2023/06/03 01:42:38;;;;;;;2.77;2.23;;;22.80;51.90;;;;;;4960304;28;20551;-68
2023/06/03 01:45:08;;;;;;;2.30;2.00;;;22.80;51.90;;;;;;4983764;28;20463;-69
2023/06/03 01:47:36;;;;;;;2.30;2.10;;;22.80;52.00;;;;;;4957720;28;20457;-69
2023/06/03 01:50:05;;;;;;;2.47;2.20;;;22.80;51.90;;;;;;4963690;28;20495;-68
2023/06/03 01:52:34;;;;;;;2.30;2.10;;;22.80;52.00;;;;;;4966857;28;20445;-69
2023/06/03 01:55:03;;;;;;;2.40;2.20;;;22.80;51.90;;;;;;4966855;28;20557;-69
2023/06/03 01:57:35;;;;;;;3.73;2.30;;;22.80;52.00;;;;;;4958851;28;20506;-68
2023/06/03 02:00:06;;;;;;;2.33;2.13;;;22.80;52.00;;;;;;4984438;28;20794;-68
2023/06/03 02:02:41;;;;;;;2.93;2.30;;;22.80;52.00;;;;;;4967110;28;20479;-69
2023/06/03 02:05:11;;;;;;;2.40;2.20;;;22.70;51.90;;;;;;4985082;28;20463;-68
2023/06/03 02:07:39;;;;;;;2.47;2.27;;;22.80;52.10;;;;;;4969060;28;20544;-68
2023/06/03 02:10:09;;;;;;;2.37;2.17;;;22.70;51.90;;;;;;4977231;28;20454;-69
2023/06/03 02:12:39;;;;;;;3.00;2.47;;;22.70;52.10;;;;;;4962670;28;20464;-69
2023/06/03 02:15:18;;;;;;;1.93;1.83;;;22.70;52.10;;;;;;4966715;28;20453;-69
2023/06/03 02:17:46;;;;;;;2.97;2.43;;;22.70;52.00;;;;;;4962950;28;20467;-69
2023/06/03 02:20:15;;;;;;;2.70;2.33;;;22.70;52.10;;;;;;4964919;28;20443;-69
2023/06/03 02:22:44;;;;;;;3.00;2.53;;;22.70;52.10;;;;;;4970943;28;20436;-69
2023/06/03 02:25:14;;;;;;;2.23;2.03;;;22.70;52.20;;;;;;4966382;28;20997;-68
2023/06/03 02:27:44;;;;;;;2.23;2.03;;;22.60;52.20;;;;;;4969135;28;20482;-69
2023/06/03 02:30:13;;;;;;;2.10;1.90;;;22.70;52.30;;;;;;4969597;28;20472;-67
2023/06/03 02:32:42;;;;;;;2.60;2.40;;;22.70;52.20;;;;;;4961565;28;20822;-69
2023/06/03 02:35:10;;;;;;;2.00;1.80;;;22.70;52.20;;;;;;4984432;28;20469;-69
2023/06/03 02:37:39;;;;;;;2.30;2.07;;;22.70;52.30;;;;;;4961672;28;20442;-69
2023/06/03 02:40:11;;;;;;;2.37;2.17;;;22.70;52.30;;;;;;4984001;28;20858;-68
2023/06/03 02:42:39;;;;;;;2.53;2.33;;;22.70;52.30;;;;;;4983904;28;20972;-69
2023/06/03 02:45:11;;;;;;;2.57;2.37;;;22.60;52.20;;;;;;4968124;28;21066;-69
2023/06/03 02:47:39;;;;;;;3.00;2.17;;;22.70;52.40;;;;;;4977280;28;20448;-68
2023/06/03 02:50:09;;;;;;;2.73;2.53;;;22.70;52.40;;;;;;4969606;28;20423;-69
2023/06/03 02:52:38;;;;;;;3.00;2.70;;;22.60;52.30;;;;;;4960532;28;20454;-69
2023/06/03 02:55:08;;;;;;;2.83;2.53;;;22.60;52.30;;;;;;4968458;28;20548;-69
2023/06/03 02:57:37;;;;;;;2.47;2.27;;;22.60;52.30;;;;;;4969267;28;20428;-69
2023/06/03 03:00:10;;;;;;;3.67;2.00;;;22.60;52.40;;;;;;4970027;28;20766;-69
2023/06/03 03:02:40;;;;;;;4.00;2.47;;;22.60;52.40;;;;;;4961209;28;20536;-70
2023/06/03 03:05:10;;;;;;;2.80;2.60;;;22.60;52.40;;;;;;4968280;28;20452;-69
2023/06/03 03:07:38;;;;;;;2.20;2.00;;;22.60;52.40;;;;;;4973439;28;20447;-69
2023/06/03 03:10:07;;;;;;;2.33;2.13;;;22.60;52.40;;;;;;4962928;28;20857;-68
2023/06/03 03:12:37;;;;;;;2.30;2.10;;;22.60;52.40;;;;;;4967170;28;20474;-68
2023/06/03 03:15:09;;;;;;;3.20;2.50;;;22.50;52.40;;;;;;4965545;28;21011;-68
2023/06/03 03:17:37;;;;;;;2.47;1.90;;;22.60;52.40;;;;;;4972242;28;20507;-69
2023/06/03 03:20:09;;;;;;;2.37;2.17;;;22.50;52.40;;;;;;4982824;28;20474;-69
2023/06/03 03:22:41;;;;;;;2.17;1.77;;;22.50;52.40;;;;;;4966905;28;20467;-69
2023/06/03 03:25:11;;;;;;;1.97;1.63;;;22.50;52.40;;;;;;4964216;28;20823;-69
2023/06/03 03:27:42;;;;;;;2.87;2.57;;;22.50;52.50;;;;;;4958684;28;20447;-69
2023/06/03 03:30:11;;;;;;;2.60;2.40;;;22.50;52.50;;;;;;4963483;28;20546;-68
2023/06/03 03:32:41;;;;;;;2.50;2.30;;;22.50;52.40;;;;;;4957407;28;20465;-69
2023/06/03 03:35:16;;;;;;;2.03;1.83;;;22.50;52.50;;;;;;4966307;28;20460;-69
2023/06/03 03:37:55;;;;;;;2.23;2.03;;;22.50;53.70;;;;;;4966175;28;20447;-68
2023/06/03 03:40:23;;;;;;;2.30;2.10;;;22.50;52.50;;;;;;4963491;28;20489;-69
2023/06/03 03:42:56;;;;;;;3.10;2.40;;;22.50;52.50;;;;;;4965819;28;20478;-69
2023/06/03 03:45:31;;;;;;;2.77;1.80;;;22.50;52.50;;;;;;4958396;28;21015;-68
2023/06/03 03:48:03;;;;;;;2.60;2.30;;;22.50;52.40;;;;;;4976941;28;20491;-69
2023/06/03 03:50:43;;;;;;;3.03;2.30;;;22.40;52.40;;;;;;4966083;28;20450;-68
2023/06/03 03:53:14;;;;;;;3.17;2.47;;;22.40;52.50;;;;;;4965028;28;20463;-68
2023/06/03 03:55:45;;;;;;;2.20;2.10;;;22.40;52.40;;;;;;4967750;28;20467;-70
2023/06/03 03:58:26;;;;;;;2.43;2.23;;;22.40;52.50;;;;;;4962600;28;20463;-68
2023/06/03 04:00:59;;;;;;;2.50;2.07;;;22.40;52.50;;;;;;4964804;28;20445;-68
2023/06/03 04:03:35;;;;;;;2.07;1.77;;;22.40;52.60;;;;;;4959189;28;20521;-68
2023/06/03 04:06:07;;;;;;;2.90;2.50;;;22.40;53.70;;;;;;4982617;28;20462;-68
2023/06/03 04:08:40;;;;;;;3.23;2.37;;;22.40;52.60;;;;;;4982104;28;20455;-68
2023/06/03 04:11:19;;;;;;;2.53;2.23;;;22.40;52.60;;;;;;4964993;28;20865;-69
2023/06/03 04:13:49;;;;;;;2.77;2.57;;;22.40;52.60;;;;;;4963618;28;20483;-68
2023/06/03 04:16:45;;;;;;;3.13;2.60;;;22.40;52.70;;;;;;4962045;28;21034;-68
2023/06/03 04:19:20;;;;;;;2.27;2.07;;;22.40;52.70;;;;;;4965607;28;20479;-69
2023/06/03 04:21:50;;;;;;;2.50;2.30;;;22.30;52.60;;;;;;4979494;28;20848;-69
2023/06/03 04:24:18;;;;;;;2.37;2.17;;;22.30;52.70;;;;;;4960798;28;20697;-68
2023/06/03 04:26:47;;;;;;;2.70;2.10;;;22.30;52.70;;;;;;4966279;28;20467;-68
2023/06/03 04:29:16;;;;;;;2.33;2.10;;;22.30;52.60;;;;;;4982406;28;20972;-67
2023/06/03 04:31:45;;;;;;;2.47;2.27;;;22.40;52.80;;;;;;4961589;28;20448;-69
2023/06/03 04:34:13;;;;;;;2.80;2.43;;;22.30;52.80;;;;;;4946703;28;21019;-69
2023/06/03 04:36:42;;;;;;;3.47;2.10;;;22.30;52.70;;;;;;4977723;28;20471;-68
2023/06/03 04:39:12;;;;;;;3.67;2.23;;;22.30;52.80;;;;;;4963562;28;20491;-69
2023/06/03 04:41:44;;;;;;;2.93;2.63;;;22.30;52.80;;;;;;4969827;28;20442;-68
2023/06/03 04:44:13;;;;;;;2.40;2.20;;;22.30;52.80;;;;;;4966482;28;20518;-67
2023/06/03 04:46:45;;;;;;;5.80;2.40;;;22.30;52.80;;;;;;4959109;28;20471;-69
2023/06/03 04:49:14;;;;;;;2.33;2.13;;;22.30;52.80;;;;;;4969093;28;20478;-67
2023/06/03 04:51:44;;;;;;;3.30;2.47;;;22.30;52.80;;;;;;4962159;28;20440;-68
2023/06/03 04:54:16;;;;;;;3.10;2.30;;;22.30;52.90;;;;;;4968320;28;21047;-69
2023/06/03 04:56:47;;;;;;;2.97;2.67;;;22.30;52.90;;;;;;4967455;28;20451;-68
2023/06/03 04:59:18;;;;;;;2.63;2.40;;;22.20;52.90;;;;;;4958614;28;20480;-69
2023/06/03 05:01:53;;;;;;;2.47;2.27;;;22.20;52.90;;;;;;4968740;28;20442;-68
2023/06/03 05:04:29;;;;;;;3.17;1.93;;;22.30;53.00;;;;;;4968731;28;20485;-68
2023/06/03 05:07:01;;;;;;;2.23;2.00;;;22.30;53.00;;;;;;4968311;28;20458;-67
2023/06/03 05:09:31;;;;;;;2.20;2.00;;;22.30;52.90;;;;;;4968544;28;20472;-68
2023/06/03 05:12:00;;;;;;;2.07;1.90;;;22.20;52.90;;;;;;4969124;28;20490;-68
2023/06/03 05:14:31;;;;;;;2.33;2.13;;;22.30;52.90;;;;;;4968450;28;20508;-68
2023/06/03 05:16:59;;;;;;;2.43;2.23;;;22.20;52.90;;;;;;4964812;28;20470;-69
2023/06/03 05:19:29;;;;;;;2.90;2.27;;;22.20;52.90;;;;;;4967019;28;20499;-67
2023/06/03 05:22:00;;;;;;;3.07;2.50;;;22.20;53.00;;;;;;4969008;28;20447;-69
2023/06/03 05:24:31;;;;;;;2.13;1.80;;;22.30;53.00;;;;;;4966243;28;20482;-67
2023/06/03 05:27:00;;;;;;;2.37;2.17;;;22.30;54.00;;;;;;4968770;28;20467;-68
2023/06/03 05:29:29;;;;;;;2.40;2.17;;;22.30;52.90;;;;;;4969360;28;20828;-68
2023/06/03 05:31:58;;;;;;;2.47;2.27;;;22.30;52.50;;;;;;4962555;28;20451;-67
2023/06/03 05:34:27;;;;;;;2.43;2.23;;;22.30;52.40;;;;;;4964926;28;20995;-68
2023/06/03 05:36:55;;;;;;;2.20;1.97;;;22.20;52.40;;;;;;4962553;28;20447;-72
2023/06/03 05:39:23;;;;;;;2.67;2.40;;;22.20;52.50;;;;;;4962287;28;20491;-70
2023/06/03 05:41:53;;;;;;;3.13;2.10;;;22.30;52.50;;;;;;4960699;28;20445;-72
2023/06/03 05:44:25;;;;;;;2.93;2.63;;;22.30;51.90;;;;;;4966559;28;20471;-72
2023/06/03 05:46:54;;;;;;;2.60;2.40;;;22.20;51.80;;;;;;4976311;28;20454;-71
2023/06/03 05:49:24;;;;;;;3.60;2.53;;;22.20;52.30;;;;;;4982806;28;20480;-72
2023/06/03 05:51:53;;;;;;;2.47;2.10;;;22.30;52.30;;;;;;4966136;28;20486;-71
2023/06/03 05:54:21;;;;;;;2.70;2.17;;;22.20;52.40;;;;;;4965181;28;20543;-72
2023/06/03 05:56:50;;;;;;;4.00;2.07;;;22.20;51.80;;;;;;4968375;28;20449;-71
2023/06/03 05:59:20;;;;;;;2.57;2.30;;;22.20;52.00;;;;;;4965760;28;22062;-72
2023/06/03 06:01:48;;;;;;;2.83;2.60;;;22.30;51.50;;;;;;4961097;28;20435;-70
2023/06/03 06:04:17;;;;;;;2.23;1.83;;;22.30;51.80;;;;;;4961034;28;20544;-71
2023/06/03 06:06:46;;;;;;;2.23;1.87;;;22.30;51.60;;;;;;4966915;28;20474;-72
2023/06/03 06:09:14;;;;;;;2.53;2.33;;;22.20;51.70;;;;;;4946495;28;20484;-71
2023/06/03 06:11:43;;;;;;;2.20;1.93;;;22.30;52.10;;;;;;4968075;28;20514;-71
2023/06/03 06:14:12;;;;;;;2.43;2.23;;;22.20;51.60;;;;;;4966549;28;21007;-72
2023/06/03 06:16:43;;;;;;;2.13;1.93;;;22.20;51.40;;;;;;4959965;28;20475;-72
2023/06/03 06:19:11;;;;;;;2.60;2.40;;;22.20;52.00;;;;;;4967103;28;20478;-73
2023/06/03 06:21:40;;;;;;;2.23;2.03;;;22.20;51.40;;;;;;4966859;28;20482;-72
2023/06/03 06:24:09;;;;;;;2.30;2.10;;;22.20;51.20;;;;;;4965226;28;20831;-72
2023/06/03 06:26:40;;;;;;;2.43;1.80;;;22.20;51.30;;;;;;4965008;28;20502;-72
2023/06/03 06:29:09;;;;;;;2.30;2.00;;;22.20;50.80;;;;;;4965965;28;20485;-71
2023/06/03 06:31:38;;;;;;;2.20;2.00;;;22.20;51.10;;;;;;4962601;28;20502;-72
2023/06/03 06:34:10;;;;;;;2.93;2.10;;;22.20;50.80;;;;;;4961328;28;20531;-71
2023/06/03 06:36:49;;;;;;;3.07;2.73;;;22.20;51.00;;;;;;4965400;28;20514;-71
2023/06/03 06:39:47;;;;;;;3.60;2.00;;;22.20;50.50;;;;;;4960162;28;20778;-68
2023/06/03 06:42:31;;;;;;;2.23;2.03;;;22.20;50.80;;;;;;4955745;28;20474;-69
2023/06/03 06:45:39;;;;;;;2.03;1.83;;;22.20;50.50;;;;;;4957449;28;20593;-68
2023/06/03 06:48:10;;;;;;;2.67;1.70;;;22.20;50.90;;;;;;4954640;28;20456;-67
2023/06/03 06:50:52;;;;;;;1.97;1.50;;;22.20;51.20;;;;;;4966722;28;20478;-68
2023/06/03 06:53:27;;;;;;;2.30;2.10;;;22.20;50.60;;;;;;4962673;28;20835;-68
2023/06/03 06:56:00;;;;;;;2.80;2.00;;;22.20;50.50;;;;;;4958664;28;20464;-69
2023/06/03 06:58:35;;;;;;;1.73;1.63;;;22.20;50.80;;;;;;4964166;28;20842;-69
2023/06/03 07:01:05;;;;;;;2.10;1.90;;;22.20;50.00;;;;;;4959491;28;20968;-68
2023/06/03 07:03:40;;;;;;;3.17;2.30;;;22.20;50.10;;;;;;4982163;28;20990;-68
2023/06/03 07:06:12;;;;;;;2.00;1.80;;;22.20;49.40;;;;;;4966229;28;20832;-68
2023/06/03 07:08:41;;;;;;;3.10;2.20;;;22.20;49.80;;;;;;4964196;28;20478;-68
2023/06/03 07:11:10;;;;;;;2.23;2.03;;;22.20;49.40;;;;;;4966020;28;20833;-68
2023/06/03 07:13:44;;;;;;;2.20;1.60;;;22.20;49.60;;;;;;4964670;28;20459;-67
2023/06/03 07:16:16;;;;;;;2.33;2.13;;;22.20;49.10;;;;;;4963714;28;20487;-67
2023/06/03 07:18:45;;;;;;;1.60;1.50;;;22.20;49.00;;;;;;4971265;28;20487;-66
2023/06/03 07:21:17;;;;;;;2.83;1.70;;;22.20;49.20;;;;;;4982557;28;20455;-67
2023/06/03 07:23:49;;;;;;;1.73;1.63;;;22.20;49.30;;;;;;4954508;28;20601;-69
2023/06/03 07:26:18;;;;;;;2.37;1.90;;;22.20;50.00;;;;;;4963860;28;20573;-64
2023/06/03 07:28:48;;;;;;;3.10;2.23;;;22.20;42.00;;;;;;4982075;28;20735;-63
2023/06/03 07:31:21;;;;;;;2.13;1.83;;;22.20;43.50;;;;;;4957132;28;20472;-64
2023/06/03 07:33:52;;;;;;;6.23;2.70;;;22.00;36.80;;;;;;4961529;28;21018;-68
2023/06/03 07:36:28;;;;;;;3.03;1.77;;;21.50;40.80;;;;;;4956769;28;20494;-69
2023/06/03 07:39:02;;;;;;;4.33;2.10;;;21.50;41.80;;;;;;4955056;28;21018;-66
2023/06/03 07:41:41;;;;;;;8.93;1.80;;;21.60;42.10;;;;;;4971977;28;20481;-68
2023/06/03 07:44:20;;;;;;;3.00;1.93;;;21.70;42.60;;;;;;4961870;28;20463;-69
2023/06/03 07:46:56;;;;;;;4.20;1.57;;;21.70;42.70;;;;;;4957718;28;20956;-67
2023/06/03 07:49:24;;;;;;;3.17;1.60;;;21.80;43.20;;;;;;4964035;28;20498;-68
2023/06/03 07:51:54;;;;;;;2.90;1.87;;;21.80;43.50;;;;;;4962849;28;20447;-67
2023/06/03 07:54:23;;;;;;;3.97;1.73;;;21.90;43.90;;;;;;4954461;28;20491;-67
2023/06/03 07:56:51;;;;;;;3.10;1.70;;;21.90;44.20;;;;;;4962488;28;20466;-69
2023/06/03 07:59:21;;;;;;;9.20;2.03;;;21.90;44.00;;;;;;4964539;28;20534;-67
2023/06/03 08:01:51;;;;;;;4.70;2.03;;;22.00;44.50;;;;;;4954804;28;20547;-68
2023/06/03 08:04:28;;;;;;;2.07;1.67;;;22.00;45.10;;;;;;4965169;28;20475;-67
2023/06/03 08:07:00;;;;;;;6.83;1.77;;;22.00;45.60;;;;;;4968491;28;20447;-69
2023/06/03 08:09:33;;;;;;;2.60;2.30;;;22.00;46.10;;;;;;4977569;28;20467;-69
2023/06/03 08:12:03;;;;;;;2.50;1.87;;;22.00;47.20;;;;;;4966673;28;20947;-67
2023/06/03 08:14:34;;;;;;;3.00;1.90;;;22.10;45.60;;;;;;4968556;28;20474;-69
2023/06/03 08:17:07;;;;;;;2.67;2.10;;;22.00;45.80;;;;;;4959083;28;20624;-67
2023/06/03 08:19:35;;;;;;;2.50;1.83;;;22.00;46.10;;;;;;4967815;28;20471;-68
2023/06/03 08:22:16;;;;;;;3.40;1.93;;;22.10;46.40;;;;;;4961119;28;20462;-67
2023/06/03 08:24:45;;;;;;;2.73;2.17;;;22.20;43.50;;;;;;4964825;28;20466;-67
2023/06/03 08:27:13;;;;;;;9.83;2.17;;;22.20;44.00;;;;;;4962999;28;20459;-68
2023/06/03 08:29:42;;;;;;;4.20;2.13;;;22.20;44.60;;;;;;4969053;28;20490;-69
2023/06/03 08:32:10;;;;;;;2.67;1.77;;;22.10;45.50;;;;;;4965244;28;20963;-69
2023/06/03 08:34:38;;;;;;;3.03;2.13;;;22.10;44.70;;;;;;4964109;28;20475;-67
2023/06/03 08:37:08;;;;;;;3.17;1.60;;;22.10;45.80;;;;;;4968643;28;20882;-67
2023/06/03 08:39:37;;;;;;;2.80;1.67;;;22.10;45.90;;;;;;4964322;28;20507;-68
2023/06/03 08:42:09;;;;;;;2.93;2.00;;;22.10;45.90;;;;;;4963901;28;20488;-68
2023/06/03 08:44:45;;;;;;;2.57;1.80;;;22.10;46.20;;;;;;4977367;28;20475;-70
2023/06/03 08:47:17;;;;;;;4.70;1.90;;;22.20;45.50;;;;;;4956388;28;20455;-69
2023/06/03 08:49:55;;;;;;;5.50;2.00;;;22.20;43.70;;;;;;4979923;28;20794;-68
2023/06/03 08:52:29;;;;;;;2.10;1.80;;;22.10;44.60;;;;;;4978120;28;20446;-68
2023/06/03 08:55:01;;;;;;;1.80;1.70;;;22.10;44.70;;;;;;4963629;28;20478;-68
2023/06/03 08:57:34;;;;;;;2.00;1.80;;;22.10;45.20;;;;;;4966324;28;20454;-69
2023/06/03 09:00:05;;;;;;;5.70;2.00;;;22.10;45.30;;;;;;4970151;28;20467;-68
2023/06/03 09:02:35;;;;;;;6.50;1.50;;;22.10;45.60;;;;;;4964948;28;20470;-68
2023/06/03 09:05:05;;;;;;;1.77;1.67;;;22.10;45.70;;;;;;4967815;28;20472;-67
2023/06/03 09:07:36;;;;;;;8.10;2.27;;;22.10;45.80;;;;;;4965683;28;20532;-68
2023/06/03 09:10:08;;;;;;;2.03;1.50;;;22.10;45.90;;;;;;4968888;28;20455;-69
2023/06/03 09:12:38;;;;;;;1.60;1.50;;;22.10;45.80;;;;;;4952306;28;20458;-68
2023/06/03 09:15:08;;;;;;;3.63;1.83;;;22.10;45.80;;;;;;4950160;28;20471;-69
2023/06/03 09:17:37;;;;;;;3.13;1.67;;;22.10;46.30;;;;;;4964715;28;21190;-67
2023/06/03 09:20:07;;;;;;;1.60;1.50;;;22.10;45.90;;;;;;4967016;28;20455;-67
2023/06/03 09:22:38;;;;;;;2.00;1.40;;;22.10;46.10;;;;;;4965940;28;20834;-69
2023/06/03 09:25:07;;;;;;;2.60;1.73;;;22.10;46.40;;;;;;4966183;28;20474;-68
2023/06/03 09:27:36;;;;;;;2.70;1.80;;;22.10;46.40;;;;;;4962353;28;20466;-68
2023/06/03 09:30:06;;;;;;;1.73;1.53;;;22.10;46.50;;;;;;4964675;28;20539;-69
2023/06/03 09:32:37;;;;;;;4.80;2.00;;;22.10;46.40;;;;;;4948468;28;20454;-67
2023/06/03 09:35:06;;;;;;;3.30;2.23;;;22.10;46.70;;;;;;4963205;28;20459;-67
2023/06/03 09:37:57;;;;;;;2.83;1.93;;;22.10;46.30;;;;;;4969292;28;20590;-68
2023/06/03 09:40:28;;;;;;;2.30;1.63;;;22.10;46.90;;;;;;4962184;28;20468;-69
2023/06/03 09:42:57;;;;;;;3.00;1.77;;;22.10;47.10;;;;;;4966422;28;20477;-67
2023/06/03 09:45:28;;;;;;;2.60;1.70;;;22.10;47.00;;;;;;4964190;28;20475;-67
2023/06/03 09:47:58;;;;;;;1.90;1.37;;;22.10;46.90;;;;;;4965771;28;20822;-68
2023/06/03 09:50:28;;;;;;;4.93;2.03;;;22.10;46.50;;;;;;4964407;28;20483;-68
2023/06/03 09:52:58;;;;;;;2.87;1.40;;;22.10;46.40;;;;;;4967231;28;20810;-67
2023/06/03 09:55:32;;;;;;;2.30;2.10;;;22.10;46.60;;;;;;4959806;28;20475;-68
2023/06/03 09:58:03;;;;;;;1.87;1.53;;;22.10;46.90;;;;;;4966416;28;20480;-68
2023/06/03 10:00:33;;;;;;;1.80;1.53;;;22.10;46.90;;;;;;4963928;28;20439;-67
2023/06/03 10:03:10;;;;;;;5.00;1.87;;;22.10;46.80;;;;;;4956425;28;20506;-69
2023/06/03 10:05:39;;;;;;;1.50;1.40;;;22.10;47.00;;;;;;4965391;28;20458;-69
2023/06/03 10:08:09;;;;;;;1.57;1.47;;;22.10;46.30;;;;;;4964132;28;20959;-69
2023/06/03 10:10:55;;;;;;;7.23;1.80;;;22.10;47.00;;;;;;4977302;28;20445;-69
2023/06/03 10:13:24;;;;;;;2.10;1.80;;;22.10;47.20;;;;;;4978410;28;20487;-68
2023/06/03 10:15:53;;;;;;;2.03;1.83;;;22.10;47.00;;;;;;4963506;28;20561;-69
2023/06/03 10:18:36;;;;;;;2.30;1.67;;;22.10;47.00;;;;;;4963874;28;20475;-68
2023/06/03 10:21:10;;;;;;;2.87;1.73;;;22.10;47.50;;;;;;4959777;28;20868;-68
2023/06/03 10:23:41;;;;;;;4.47;1.80;;;22.20;47.90;;;;;;4964845;28;20478;-69
2023/06/03 10:26:10;;;;;;;3.20;1.73;;;22.20;46.40;;;;;;4963179;28;20474;-68
2023/06/03 10:28:39;;;;;;;3.20;2.20;;;22.20;46.80;;;;;;4964970;28;20541;-69
2023/06/03 10:31:08;;;;;;;2.20;1.70;;;22.10;46.80;;;;;;4964946;28;20538;-69
2023/06/03 10:33:38;;;;;;;2.07;1.40;;;22.10;47.30;;;;;;4959964;28;20471;-68
2023/06/03 10:36:09;;;;;;;3.00;1.93;;;22.20;47.20;;;;;;4965548;28;21834;-68
2023/06/03 10:38:41;;;;;;;2.90;1.70;;;22.20;47.30;;;;;;4963324;28;20538;-69
2023/06/03 10:41:12;;;;;;;1.73;1.63;;;22.10;46.70;;;;;;4963458;28;20458;-69
2023/06/03 10:43:43;;;;;;;2.40;1.60;;;22.20;47.10;;;;;;4962201;28;20555;-69
2023/06/03 10:46:13;;;;;;;2.30;2.10;;;22.20;46.80;;;;;;4963172;28;20462;-68
2023/06/03 10:48:45;;;;;;;2.37;1.77;;;22.20;47.40;;;;;;4965846;28;20987;-68
2023/06/03 10:51:38;;;;;;;2.00;1.80;;;22.20;47.10;;;;;;4963349;28;20451;-69
2023/06/03 10:54:24;;;;;;;2.07;1.87;;;22.10;46.90;;;;;;4961305;28;21445;-68
2023/06/03 10:57:00;;;;;;;4.73;1.80;;;22.20;46.40;;;;;;4962818;28;21002;-69
2023/06/03 10:59:38;;;;;;;3.33;1.97;;;22.20;46.60;;;;;;4967397;28;20528;-69
2023/06/03 11:02:08;;;;;;;2.60;1.60;;;22.20;46.50;;;;;;4979261;28;20970;-68
2023/06/03 11:04:38;;;;;;;2.83;1.90;;;22.20;47.10;;;;;;4963896;28;20486;-68
2023/06/03 11:07:07;;;;;;;2.50;1.90;;;22.20;47.00;;;;;;4965949;28;20431;-67
2023/06/03 11:09:38;;;;;;;2.57;2.30;;;22.20;47.20;;;;;;4960779;28;20483;-66
2023/06/03 11:12:13;;;;;;;5.70;2.10;;;22.40;43.00;;;;;;4963476;28;20450;-72
2023/06/03 11:14:55;;;;;;;3.70;1.93;;;22.50;39.80;;;;;;4964236;28;20570;-71
2023/06/03 11:17:25;;;;;;;6.70;2.43;;;22.40;38.70;;;;;;4965285;28;20467;-71
2023/06/03 11:19:55;;;;;;;5.20;2.63;;;22.40;41.30;;;;;;4965596;28;20450;-73
2023/06/03 11:22:45;;;;;;;3.40;1.97;;;22.40;41.30;;;;;;4978590;28;20452;-73
2023/06/03 11:25:32;;;;;;;2.50;2.10;;;22.30;39.80;;;;;;4959506;28;20535;-70
2023/06/03 11:28:36;;;;;;;3.27;2.30;;;22.30;42.10;;;;;;4964528;28;20431;-71
2023/06/03 11:31:07;;;;;;;3.70;2.10;;;22.30;41.80;;;;;;4960445;28;20463;-69
2023/06/03 11:33:36;;;;;;;2.50;2.00;;;22.30;40.90;;;;;;4961688;28;20481;-71
2023/06/03 11:36:56;;;;;;;2.40;2.20;;;22.40;41.30;;;;;;4963849;28;20466;-71
2023/06/03 11:39:25;;;;;;;3.47;1.93;;;22.30;38.80;;;;;;4960544;28;20482;-71
2023/06/03 11:42:09;;;;;;;3.53;2.50;;;22.30;41.60;;;;;;4968054;28;20454;-72
2023/06/03 11:44:41;;;;;;;2.47;2.27;;;22.30;40.10;;;;;;4968705;28;20486;-72
2023/06/03 11:47:10;;;;;;;2.37;2.20;;;22.40;39.50;;;;;;4960948;28;20442;-71
2023/06/03 11:49:40;;;;;;;3.40;2.17;;;22.30;38.30;;;;;;4970743;28;20478;-71
2023/06/03 11:52:10;;;;;;;2.33;2.10;;;22.30;39.80;;;;;;4971935;28;20435;-71
2023/06/03 11:54:39;;;;;;;2.77;2.57;;;22.30;40.70;;;;;;4962196;28;20503;-72
2023/06/03 11:57:09;;;;;;;3.27;2.47;;;22.30;39.40;;;;;;4970041;28;20447;-71
2023/06/03 11:59:44;;;;;;;5.70;2.73;;;22.30;39.20;;;;;;4970166;28;20494;-67
2023/06/03 12:02:12;;;;;;;2.40;2.20;;;22.30;43.50;;;;;;4969031;28;20477;-68
2023/06/03 12:04:41;;;;;;;3.20;2.10;;;22.40;43.60;;;;;;4968879;28;20471;-69
2023/06/03 12:07:14;;;;;;;2.60;1.73;;;22.30;43.70;;;;;;4968936;28;20541;-69
2023/06/03 12:09:43;;;;;;;5.57;2.40;;;22.40;43.70;;;;;;4968891;28;20827;-68
2023/06/03 12:12:14;;;;;;;2.20;2.00;;;22.30;43.70;;;;;;4968689;28;20462;-69
2023/06/03 12:14:44;;;;;;;4.07;2.57;;;22.30;43.80;;;;;;4944001;29;20475;-70
2023/06/03 12:17:14;;;;;;;2.60;2.03;;;22.30;44.00;;;;;;4953623;28;20474;-68
2023/06/03 12:19:44;;;;;;;2.93;2.07;;;22.30;44.70;;;;;;4950714;29;20456;-68
2023/06/03 12:22:14;;;;;;;3.97;2.47;;;22.30;44.50;;;;;;4948501;29;20466;-68
2023/06/03 12:24:45;;;;;;;5.97;2.77;;;22.40;44.80;;;;;;4960547;28;21218;-68
2023/06/03 12:27:17;;;;;;;4.47;3.43;;;22.40;44.50;;;;;;4949635;29;20448;-71
2023/06/03 12:29:48;;;;;;;5.63;2.20;;;22.40;44.50;;;;;;4952233;28;20496;-71
2023/06/03 12:32:17;;;;;;;2.90;2.00;;;22.40;44.40;;;;;;4964105;28;20540;-73
2023/06/03 12:34:55;;;;;;;2.33;2.13;;;22.40;44.70;;;;;;4964902;28;20452;-72
2023/06/03 12:37:28;;;;;;;3.40;1.90;;;22.40;44.70;;;;;;4945641;28;20518;-71
2023/06/03 12:39:58;;;;;;;4.90;2.97;;;22.40;45.10;;;;;;4942537;28;20484;-71
2023/06/03 12:42:42;;;;;;;2.40;2.20;;;22.50;43.10;;;;;;4961059;28;20448;-71
2023/06/03 12:45:11;;;;;;;2.77;2.40;;;22.50;42.20;;;;;;4943874;29;20472;-71
2023/06/03 12:47:44;;;;;;;2.67;2.10;;;22.50;42.60;;;;;;4947176;28;20531;-72
2023/06/03 12:50:14;;;;;;;3.80;2.10;;;22.50;43.10;;;;;;4941173;28;20455;-71
2023/06/03 12:52:43;;;;;;;2.77;2.03;;;22.50;43.50;;;;;;4938262;28;20535;-68
2023/06/03 12:55:14;;;;;;;5.97;2.20;;;22.50;43.80;;;;;;4936774;29;20572;-69
2023/06/03 12:57:46;;;;;;;5.70;2.10;;;22.50;44.00;;;;;;4939714;28;20556;-68
2023/06/03 13:00:18;;;;;;;4.30;3.00;;;22.50;44.40;;;;;;4961543;28;20448;-68
2023/06/03 13:02:49;;;;;;;3.37;2.10;;;22.50;44.90;;;;;;4953062;28;20439;-68
2023/06/03 13:05:18;;;;;;;6.40;2.43;;;22.50;44.80;;;;;;4944579;28;20484;-68
2023/06/03 13:07:47;;;;;;;4.83;2.40;;;22.50;44.90;;;;;;4943727;29;20824;-68
2023/06/03 13:10:17;;;;;;;4.30;2.00;;;22.50;45.10;;;;;;4946624;29;20452;-69
2023/06/03 13:12:47;;;;;;;4.57;2.67;;;22.50;45.40;;;;;;4961692;28;20466;-72